sensor_id;sensor_type;location;lat;lon;timestamp;P1;durP1;ratioP1;P2;durP2;ratioP2
60919;SDS011;59039;52.108;19.942;2023-12-29T00:01:18;40.80;;;18.10;;
60919;SDS011;59039;52.108;19.942;2023-12-29T00:03:58;44.30;;;18.60;;
60919;SDS011;59039;52.108;19.942;2023-12-29T00:06:28;40.30;;;18.60;;
60919;SDS011;59039;52.108;19.942;2023-12-29T00:08:56;42.90;;;17.50;;
60919;SDS011;59039;52.108;19.942;2023-12-29T00:11:24;35.90;;;16.90;;
60919;SDS011;59039;52.108;19.942;2023-12-29T00:14:13;37.30;;;17.10;;
60919;SDS011;59039;52.108;19.942;2023-12-29T00:17:15;30.00;;;15.60;;
60919;SDS011;59039;52.108;19.942;2023-12-29T00:19:55;36.90;;;15.50;;
60919;SDS011;59039;52.108;19.942;2023-12-29T00:22:28;34.40;;;15.50;;
60919;SDS011;59039;52.108;19.942;2023-12-29T00:24:55;28.90;;;15.10;;
60919;SDS011;59039;52.108;19.942;2023-12-29T00:27:21;31.80;;;15.40;;
60919;SDS011;59039;52.108;19.942;2023-12-29T00:29:47;43.90;;;15.80;;
60919;SDS011;59039;52.108;19.942;2023-12-29T00:32:12;36.70;;;14.90;;
60919;SDS011;59039;52.108;19.942;2023-12-29T00:34:37;30.80;;;15.20;;
60919;SDS011;59039;52.108;19.942;2023-12-29T00:37:03;31.50;;;14.70;;
60919;SDS011;59039;52.108;19.942;2023-12-29T00:39:28;27.30;;;13.10;;
60919;SDS011;59039;52.108;19.942;2023-12-29T00:42:17;27.50;;;13.00;;
60919;SDS011;59039;52.108;19.942;2023-12-29T00:44:50;25.50;;;13.30;;
60919;SDS011;59039;52.108;19.942;2023-12-29T00:47:20;29.80;;;14.30;;
60919;SDS011;59039;52.108;19.942;2023-12-29T00:52:46;25.00;;;13.30;;
60919;SDS011;59039;52.108;19.942;2023-12-29T00:55:20;34.90;;;15.20;;
60919;SDS011;59039;52.108;19.942;2023-12-29T00:58:19;36.60;;;15.20;;
60919;SDS011;59039;52.108;19.942;2023-12-29T01:00:55;34.80;;;15.20;;
60919;SDS011;59039;52.108;19.942;2023-12-29T01:03:26;32.70;;;16.20;;
60919;SDS011;59039;52.108;19.942;2023-12-29T01:05:59;34.90;;;15.00;;
60919;SDS011;59039;52.108;19.942;2023-12-29T01:08:36;31.50;;;15.20;;
60919;SDS011;59039;52.108;19.942;2023-12-29T01:11:04;35.00;;;15.60;;
60919;SDS011;59039;52.108;19.942;2023-12-29T01:13:41;33.30;;;15.80;;
60919;SDS011;59039;52.108;19.942;2023-12-29T01:16:21;27.70;;;14.80;;
60919;SDS011;59039;52.108;19.942;2023-12-29T01:19:07;27.00;;;13.50;;
60919;SDS011;59039;52.108;19.942;2023-12-29T01:24:15;30.30;;;16.00;;
60919;SDS011;59039;52.108;19.942;2023-12-29T01:26:43;35.40;;;15.20;;
60919;SDS011;59039;52.108;19.942;2023-12-29T01:29:20;36.10;;;14.20;;
60919;SDS011;59039;52.108;19.942;2023-12-29T01:31:51;30.40;;;13.40;;
60919;SDS011;59039;52.108;19.942;2023-12-29T01:34:40;33.40;;;13.70;;
60919;SDS011;59039;52.108;19.942;2023-12-29T01:37:27;32.60;;;14.30;;
60919;SDS011;59039;52.108;19.942;2023-12-29T01:40:41;41.30;;;15.00;;
60919;SDS011;59039;52.108;19.942;2023-12-29T01:43:21;33.60;;;14.00;;
60919;SDS011;59039;52.108;19.942;2023-12-29T01:45:58;26.50;;;13.00;;
60919;SDS011;59039;52.108;19.942;2023-12-29T01:48:43;31.20;;;13.40;;
60919;SDS011;59039;52.108;19.942;2023-12-29T01:51:15;30.00;;;12.70;;
60919;SDS011;59039;52.108;19.942;2023-12-29T01:53:51;26.10;;;11.80;;
60919;SDS011;59039;52.108;19.942;2023-12-29T01:59:25;33.70;;;13.10;;
60919;SDS011;59039;52.108;19.942;2023-12-29T02:01:56;33.50;;;13.30;;
60919;SDS011;59039;52.108;19.942;2023-12-29T02:04:22;31.70;;;13.50;;
60919;SDS011;59039;52.108;19.942;2023-12-29T02:06:56;31.30;;;15.50;;
60919;SDS011;59039;52.108;19.942;2023-12-29T02:09:33;32.90;;;16.10;;
60919;SDS011;59039;52.108;19.942;2023-12-29T02:12:14;31.60;;;14.40;;
60919;SDS011;59039;52.108;19.942;2023-12-29T02:14:46;29.60;;;13.40;;
60919;SDS011;59039;52.108;19.942;2023-12-29T02:17:43;24.30;;;12.80;;
60919;SDS011;59039;52.108;19.942;2023-12-29T02:20:11;30.00;;;12.40;;
60919;SDS011;59039;52.108;19.942;2023-12-29T02:22:42;27.40;;;13.20;;
60919;SDS011;59039;52.108;19.942;2023-12-29T02:25:22;29.40;;;13.30;;
60919;SDS011;59039;52.108;19.942;2023-12-29T02:28:03;21.20;;;11.00;;
60919;SDS011;59039;52.108;19.942;2023-12-29T02:33:51;30.00;;;14.00;;
60919;SDS011;59039;52.108;19.942;2023-12-29T02:42:13;30.40;;;12.20;;
60919;SDS011;59039;52.108;19.942;2023-12-29T02:44:41;27.90;;;12.00;;
60919;SDS011;59039;52.108;19.942;2023-12-29T02:47:12;26.30;;;12.50;;
60919;SDS011;59039;52.108;19.942;2023-12-29T02:49:48;25.70;;;12.90;;
60919;SDS011;59039;52.108;19.942;2023-12-29T02:52:19;25.70;;;12.40;;
60919;SDS011;59039;52.108;19.942;2023-12-29T02:54:45;27.20;;;12.80;;
60919;SDS011;59039;52.108;19.942;2023-12-29T02:57:35;25.60;;;12.70;;
60919;SDS011;59039;52.108;19.942;2023-12-29T03:00:10;28.60;;;12.70;;
60919;SDS011;59039;52.108;19.942;2023-12-29T03:02:41;30.20;;;13.80;;
60919;SDS011;59039;52.108;19.942;2023-12-29T03:05:06;27.40;;;13.60;;
60919;SDS011;59039;52.108;19.942;2023-12-29T03:13:21;26.00;;;13.30;;
60919;SDS011;59039;52.108;19.942;2023-12-29T03:21:41;27.10;;;12.70;;
60919;SDS011;59039;52.108;19.942;2023-12-29T03:24:27;25.70;;;12.30;;
60919;SDS011;59039;52.108;19.942;2023-12-29T03:26:55;26.90;;;12.00;;
60919;SDS011;59039;52.108;19.942;2023-12-29T03:29:21;26.70;;;12.70;;
60919;SDS011;59039;52.108;19.942;2023-12-29T03:31:46;26.10;;;12.80;;
60919;SDS011;59039;52.108;19.942;2023-12-29T03:34:12;28.60;;;13.30;;
60919;SDS011;59039;52.108;19.942;2023-12-29T03:36:37;28.90;;;12.40;;
60919;SDS011;59039;52.108;19.942;2023-12-29T03:39:02;24.10;;;13.60;;
60919;SDS011;59039;52.108;19.942;2023-12-29T03:41:49;26.50;;;12.50;;
60919;SDS011;59039;52.108;19.942;2023-12-29T03:44:20;24.60;;;12.60;;
60919;SDS011;59039;52.108;19.942;2023-12-29T03:46:46;27.40;;;13.40;;
60919;SDS011;59039;52.108;19.942;2023-12-29T03:49:11;22.90;;;11.60;;
60919;SDS011;59039;52.108;19.942;2023-12-29T03:51:52;23.80;;;11.70;;
60919;SDS011;59039;52.108;19.942;2023-12-29T03:54:38;26.30;;;13.50;;
60919;SDS011;59039;52.108;19.942;2023-12-29T03:57:22;26.40;;;12.40;;
60919;SDS011;59039;52.108;19.942;2023-12-29T04:00:16;32.00;;;13.50;;
60919;SDS011;59039;52.108;19.942;2023-12-29T04:05:45;28.20;;;13.60;;
60919;SDS011;59039;52.108;19.942;2023-12-29T04:08:16;25.70;;;13.20;;
60919;SDS011;59039;52.108;19.942;2023-12-29T04:16:22;26.00;;;12.30;;
60919;SDS011;59039;52.108;19.942;2023-12-29T04:18:48;29.00;;;12.00;;
60919;SDS011;59039;52.108;19.942;2023-12-29T04:21:22;26.80;;;13.20;;
60919;SDS011;59039;52.108;19.942;2023-12-29T04:23:48;26.70;;;12.60;;
60919;SDS011;59039;52.108;19.942;2023-12-29T04:26:21;22.30;;;11.90;;
60919;SDS011;59039;52.108;19.942;2023-12-29T04:31:56;25.60;;;12.30;;
60919;SDS011;59039;52.108;19.942;2023-12-29T04:34:41;28.10;;;13.40;;
60919;SDS011;59039;52.108;19.942;2023-12-29T04:37:10;24.80;;;12.30;;
60919;SDS011;59039;52.108;19.942;2023-12-29T04:39:45;29.40;;;13.90;;
60919;SDS011;59039;52.108;19.942;2023-12-29T04:42:32;25.70;;;12.90;;
60919;SDS011;59039;52.108;19.942;2023-12-29T04:45:19;31.00;;;14.10;;
60919;SDS011;59039;52.108;19.942;2023-12-29T04:53:48;36.10;;;15.80;;
60919;SDS011;59039;52.108;19.942;2023-12-29T04:56:22;33.60;;;15.20;;
60919;SDS011;59039;52.108;19.942;2023-12-29T04:59:18;34.30;;;17.20;;
60919;SDS011;59039;52.108;19.942;2023-12-29T05:01:49;38.60;;;15.50;;
60919;SDS011;59039;52.108;19.942;2023-12-29T05:04:24;33.50;;;16.20;;
60919;SDS011;59039;52.108;19.942;2023-12-29T05:06:58;38.70;;;16.90;;
60919;SDS011;59039;52.108;19.942;2023-12-29T05:09:49;33.90;;;15.10;;
60919;SDS011;59039;52.108;19.942;2023-12-29T05:12:17;28.60;;;13.40;;
60919;SDS011;59039;52.108;19.942;2023-12-29T05:15:14;33.20;;;14.70;;
60919;SDS011;59039;52.108;19.942;2023-12-29T05:20:47;31.70;;;14.30;;
60919;SDS011;59039;52.108;19.942;2023-12-29T05:23:36;28.20;;;14.30;;
60919;SDS011;59039;52.108;19.942;2023-12-29T05:26:04;29.00;;;13.90;;
60919;SDS011;59039;52.108;19.942;2023-12-29T05:28:53;29.10;;;14.50;;
60919;SDS011;59039;52.108;19.942;2023-12-29T05:31:23;34.40;;;14.60;;
60919;SDS011;59039;52.108;19.942;2023-12-29T05:34:18;27.80;;;13.80;;
60919;SDS011;59039;52.108;19.942;2023-12-29T05:36:49;25.90;;;12.40;;
60919;SDS011;59039;52.108;19.942;2023-12-29T05:42:11;22.70;;;11.60;;
60919;SDS011;59039;52.108;19.942;2023-12-29T05:44:42;24.70;;;13.00;;
60919;SDS011;59039;52.108;19.942;2023-12-29T05:47:17;27.10;;;14.00;;
60919;SDS011;59039;52.108;19.942;2023-12-29T05:52:43;24.40;;;13.50;;
60919;SDS011;59039;52.108;19.942;2023-12-29T05:55:31;29.10;;;15.20;;
60919;SDS011;59039;52.108;19.942;2023-12-29T05:58:00;31.90;;;15.30;;
60919;SDS011;59039;52.108;19.942;2023-12-29T06:00:28;30.90;;;14.40;;
60919;SDS011;59039;52.108;19.942;2023-12-29T06:05:47;24.60;;;13.60;;
60919;SDS011;59039;52.108;19.942;2023-12-29T06:08:23;24.50;;;12.70;;
60919;SDS011;59039;52.108;19.942;2023-12-29T06:10:51;28.50;;;13.20;;
60919;SDS011;59039;52.108;19.942;2023-12-29T06:13:38;30.40;;;12.90;;
60919;SDS011;59039;52.108;19.942;2023-12-29T06:19:11;30.60;;;14.70;;
60919;SDS011;59039;52.108;19.942;2023-12-29T06:21:40;34.80;;;14.70;;
60919;SDS011;59039;52.108;19.942;2023-12-29T06:24:11;24.90;;;13.10;;
60919;SDS011;59039;52.108;19.942;2023-12-29T06:26:48;20.90;;;12.00;;
60919;SDS011;59039;52.108;19.942;2023-12-29T06:29:13;28.10;;;12.60;;
60919;SDS011;59039;52.108;19.942;2023-12-29T06:31:41;24.10;;;12.30;;
60919;SDS011;59039;52.108;19.942;2023-12-29T06:34:07;28.80;;;12.90;;
60919;SDS011;59039;52.108;19.942;2023-12-29T06:36:32;31.30;;;14.30;;
60919;SDS011;59039;52.108;19.942;2023-12-29T06:38:57;35.30;;;15.50;;
60919;SDS011;59039;52.108;19.942;2023-12-29T06:41:26;37.40;;;17.20;;
60919;SDS011;59039;52.108;19.942;2023-12-29T06:43:54;29.90;;;13.50;;
60919;SDS011;59039;52.108;19.942;2023-12-29T06:46:30;31.30;;;14.30;;
60919;SDS011;59039;52.108;19.942;2023-12-29T06:49:19;29.40;;;14.20;;
60919;SDS011;59039;52.108;19.942;2023-12-29T06:52:04;30.20;;;15.20;;
60919;SDS011;59039;52.108;19.942;2023-12-29T06:54:40;29.80;;;16.00;;
60919;SDS011;59039;52.108;19.942;2023-12-29T06:57:06;28.50;;;14.20;;
60919;SDS011;59039;52.108;19.942;2023-12-29T06:59:31;28.60;;;13.70;;
60919;SDS011;59039;52.108;19.942;2023-12-29T07:02:10;23.80;;;13.70;;
60919;SDS011;59039;52.108;19.942;2023-12-29T07:04:48;31.20;;;13.60;;
60919;SDS011;59039;52.108;19.942;2023-12-29T07:07:19;25.00;;;13.80;;
60919;SDS011;59039;52.108;19.942;2023-12-29T07:13:08;32.10;;;15.40;;
60919;SDS011;59039;52.108;19.942;2023-12-29T07:18:21;35.00;;;14.50;;
60919;SDS011;59039;52.108;19.942;2023-12-29T07:20:49;31.20;;;13.10;;
60919;SDS011;59039;52.108;19.942;2023-12-29T07:23:23;32.20;;;13.80;;
60919;SDS011;59039;52.108;19.942;2023-12-29T07:26:11;32.00;;;12.40;;
60919;SDS011;59039;52.108;19.942;2023-12-29T07:31:38;28.20;;;12.10;;
60919;SDS011;59039;52.108;19.942;2023-12-29T07:34:20;27.80;;;12.40;;
60919;SDS011;59039;52.108;19.942;2023-12-29T07:36:54;24.80;;;10.70;;
60919;SDS011;59039;52.108;19.942;2023-12-29T07:39:43;23.90;;;11.50;;
60919;SDS011;59039;52.108;19.942;2023-12-29T07:42:16;28.70;;;12.20;;
60919;SDS011;59039;52.108;19.942;2023-12-29T07:44:47;20.50;;;11.00;;
60919;SDS011;59039;52.108;19.942;2023-12-29T07:47:13;23.00;;;10.70;;
60919;SDS011;59039;52.108;19.942;2023-12-29T07:49:46;24.50;;;10.20;;
60919;SDS011;59039;52.108;19.942;2023-12-29T07:52:29;18.70;;;9.40;;
60919;SDS011;59039;52.108;19.942;2023-12-29T07:55:17;19.30;;;9.70;;
60919;SDS011;59039;52.108;19.942;2023-12-29T07:58:04;29.20;;;10.80;;
60919;SDS011;59039;52.108;19.942;2023-12-29T08:00:33;23.20;;;10.60;;
60919;SDS011;59039;52.108;19.942;2023-12-29T08:02:58;22.70;;;10.40;;
60919;SDS011;59039;52.108;19.942;2023-12-29T08:05:23;23.00;;;9.80;;
60919;SDS011;59039;52.108;19.942;2023-12-29T08:07:49;23.20;;;10.60;;
60919;SDS011;59039;52.108;19.942;2023-12-29T08:10:14;23.50;;;10.50;;
60919;SDS011;59039;52.108;19.942;2023-12-29T08:12:39;23.70;;;11.60;;
60919;SDS011;59039;52.108;19.942;2023-12-29T08:15:05;22.70;;;11.70;;
60919;SDS011;59039;52.108;19.942;2023-12-29T08:17:31;26.30;;;12.30;;
60919;SDS011;59039;52.108;19.942;2023-12-29T08:19:56;24.30;;;11.40;;
60919;SDS011;59039;52.108;19.942;2023-12-29T08:25:07;23.40;;;11.50;;
60919;SDS011;59039;52.108;19.942;2023-12-29T08:27:32;25.10;;;11.90;;
60919;SDS011;59039;52.108;19.942;2023-12-29T08:29:58;24.80;;;11.10;;
60919;SDS011;59039;52.108;19.942;2023-12-29T08:32:23;24.10;;;11.20;;
60919;SDS011;59039;52.108;19.942;2023-12-29T08:34:58;28.70;;;11.60;;
60919;SDS011;59039;52.108;19.942;2023-12-29T08:37:32;36.90;;;14.00;;
60919;SDS011;59039;52.108;19.942;2023-12-29T08:40:05;39.60;;;13.40;;
60919;SDS011;59039;52.108;19.942;2023-12-29T08:42:36;33.40;;;12.50;;
60919;SDS011;59039;52.108;19.942;2023-12-29T08:47:42;27.60;;;12.20;;
60919;SDS011;59039;52.108;19.942;2023-12-29T08:50:16;31.60;;;12.00;;
60919;SDS011;59039;52.108;19.942;2023-12-29T08:52:42;32.60;;;12.90;;
60919;SDS011;59039;52.108;19.942;2023-12-29T08:55:07;29.80;;;13.30;;
60919;SDS011;59039;52.108;19.942;2023-12-29T08:57:40;29.30;;;12.60;;
60919;SDS011;59039;52.108;19.942;2023-12-29T09:00:05;29.50;;;12.50;;
60919;SDS011;59039;52.108;19.942;2023-12-29T09:02:31;29.00;;;12.60;;
60919;SDS011;59039;52.108;19.942;2023-12-29T09:04:57;28.60;;;12.40;;
60919;SDS011;59039;52.108;19.942;2023-12-29T09:07:25;31.80;;;14.50;;
60919;SDS011;59039;52.108;19.942;2023-12-29T09:09:53;33.90;;;14.50;;
60919;SDS011;59039;52.108;19.942;2023-12-29T09:12:21;29.70;;;14.80;;
60919;SDS011;59039;52.108;19.942;2023-12-29T09:14:49;34.50;;;16.30;;
60919;SDS011;59039;52.108;19.942;2023-12-29T09:17:15;28.30;;;13.70;;
60919;SDS011;59039;52.108;19.942;2023-12-29T09:19:48;25.40;;;11.50;;
60919;SDS011;59039;52.108;19.942;2023-12-29T09:22:13;23.50;;;10.80;;
60919;SDS011;59039;52.108;19.942;2023-12-29T09:24:38;24.30;;;11.60;;
60919;SDS011;59039;52.108;19.942;2023-12-29T09:27:04;21.70;;;10.80;;
60919;SDS011;59039;52.108;19.942;2023-12-29T09:29:29;31.00;;;13.80;;
60919;SDS011;59039;52.108;19.942;2023-12-29T09:31:54;29.70;;;12.90;;
60919;SDS011;59039;52.108;19.942;2023-12-29T09:34:20;22.80;;;12.30;;
60919;SDS011;59039;52.108;19.942;2023-12-29T09:36:45;25.70;;;13.60;;
60919;SDS011;59039;52.108;19.942;2023-12-29T09:39:10;29.00;;;14.20;;
60919;SDS011;59039;52.108;19.942;2023-12-29T09:41:36;25.10;;;11.00;;
60919;SDS011;59039;52.108;19.942;2023-12-29T09:44:09;23.60;;;10.90;;
60919;SDS011;59039;52.108;19.942;2023-12-29T09:46:41;33.80;;;12.30;;
60919;SDS011;59039;52.108;19.942;2023-12-29T09:49:12;26.00;;;12.40;;
60919;SDS011;59039;52.108;19.942;2023-12-29T09:51:38;35.80;;;14.70;;
60919;SDS011;59039;52.108;19.942;2023-12-29T09:54:06;36.60;;;13.50;;
60919;SDS011;59039;52.108;19.942;2023-12-29T09:56:33;31.10;;;13.30;;
60919;SDS011;59039;52.108;19.942;2023-12-29T09:58:59;31.70;;;14.00;;
60919;SDS011;59039;52.108;19.942;2023-12-29T10:01:26;41.90;;;13.20;;
60919;SDS011;59039;52.108;19.942;2023-12-29T10:03:52;47.60;;;13.60;;
60919;SDS011;59039;52.108;19.942;2023-12-29T10:06:19;36.80;;;13.20;;
60919;SDS011;59039;52.108;19.942;2023-12-29T10:08:48;34.00;;;14.90;;
60919;SDS011;59039;52.108;19.942;2023-12-29T10:11:15;32.90;;;13.30;;
60919;SDS011;59039;52.108;19.942;2023-12-29T10:13:43;21.90;;;10.70;;
60919;SDS011;59039;52.108;19.942;2023-12-29T10:19:23;24.50;;;10.20;;
60919;SDS011;59039;52.108;19.942;2023-12-29T10:24:37;54.10;;;19.60;;
60919;SDS011;59039;52.108;19.942;2023-12-29T10:27:23;43.20;;;17.10;;
60919;SDS011;59039;52.108;19.942;2023-12-29T10:29:48;32.30;;;13.20;;
60919;SDS011;59039;52.108;19.942;2023-12-29T10:32:17;29.80;;;10.20;;
60919;SDS011;59039;52.108;19.942;2023-12-29T10:34:42;38.70;;;12.70;;
60919;SDS011;59039;52.108;19.942;2023-12-29T10:37:08;44.20;;;14.00;;
60919;SDS011;59039;52.108;19.942;2023-12-29T10:39:40;33.80;;;10.90;;
60919;SDS011;59039;52.108;19.942;2023-12-29T10:42:24;25.50;;;9.80;;
60919;SDS011;59039;52.108;19.942;2023-12-29T10:44:53;34.30;;;11.00;;
60919;SDS011;59039;52.108;19.942;2023-12-29T10:47:32;26.80;;;10.50;;
60919;SDS011;59039;52.108;19.942;2023-12-29T10:50:01;21.00;;;9.20;;
60919;SDS011;59039;52.108;19.942;2023-12-29T10:52:30;28.40;;;10.80;;
60919;SDS011;59039;52.108;19.942;2023-12-29T10:55:06;31.80;;;11.90;;
60919;SDS011;59039;52.108;19.942;2023-12-29T10:57:33;26.40;;;10.60;;
60919;SDS011;59039;52.108;19.942;2023-12-29T10:59:58;25.30;;;11.40;;
60919;SDS011;59039;52.108;19.942;2023-12-29T11:02:24;32.70;;;12.60;;
60919;SDS011;59039;52.108;19.942;2023-12-29T11:04:49;29.40;;;11.60;;
60919;SDS011;59039;52.108;19.942;2023-12-29T11:10:09;31.60;;;12.70;;
60919;SDS011;59039;52.108;19.942;2023-12-29T11:12:37;23.30;;;10.70;;
60919;SDS011;59039;52.108;19.942;2023-12-29T11:15:04;25.30;;;10.90;;
60919;SDS011;59039;52.108;19.942;2023-12-29T11:17:36;34.70;;;12.30;;
60919;SDS011;59039;52.108;19.942;2023-12-29T11:20:06;38.30;;;13.70;;
60919;SDS011;59039;52.108;19.942;2023-12-29T11:22:41;43.40;;;15.00;;
60919;SDS011;59039;52.108;19.942;2023-12-29T11:25:06;35.50;;;13.30;;
60919;SDS011;59039;52.108;19.942;2023-12-29T11:27:33;57.10;;;15.10;;
60919;SDS011;59039;52.108;19.942;2023-12-29T11:30:00;46.50;;;15.90;;
60919;SDS011;59039;52.108;19.942;2023-12-29T11:40:20;35.70;;;13.60;;
60919;SDS011;59039;52.108;19.942;2023-12-29T11:42:48;27.90;;;11.80;;
60919;SDS011;59039;52.108;19.942;2023-12-29T11:45:28;56.70;;;17.90;;
60919;SDS011;59039;52.108;19.942;2023-12-29T11:47:55;31.80;;;14.00;;
60919;SDS011;59039;52.108;19.942;2023-12-29T11:50:30;24.40;;;11.10;;
60919;SDS011;59039;52.108;19.942;2023-12-29T11:52:59;23.50;;;9.90;;
60919;SDS011;59039;52.108;19.942;2023-12-29T11:55:33;35.70;;;14.10;;
60919;SDS011;59039;52.108;19.942;2023-12-29T11:58:03;26.80;;;12.00;;
60919;SDS011;59039;52.108;19.942;2023-12-29T12:00:42;24.10;;;10.90;;
60919;SDS011;59039;52.108;19.942;2023-12-29T12:03:25;21.50;;;11.50;;
60919;SDS011;59039;52.108;19.942;2023-12-29T12:05:52;39.90;;;14.70;;
60919;SDS011;59039;52.108;19.942;2023-12-29T12:08:37;45.70;;;13.20;;
60919;SDS011;59039;52.108;19.942;2023-12-29T12:13:56;32.30;;;12.20;;
60919;SDS011;59039;52.108;19.942;2023-12-29T12:19:09;37.30;;;14.40;;
60919;SDS011;59039;52.108;19.942;2023-12-29T12:21:38;41.50;;;17.00;;
60919;SDS011;59039;52.108;19.942;2023-12-29T12:24:04;33.70;;;15.10;;
60919;SDS011;59039;52.108;19.942;2023-12-29T12:26:30;43.90;;;16.40;;
60919;SDS011;59039;52.108;19.942;2023-12-29T12:28:59;36.10;;;14.10;;
60919;SDS011;59039;52.108;19.942;2023-12-29T12:31:24;35.30;;;13.70;;
60919;SDS011;59039;52.108;19.942;2023-12-29T12:33:56;29.60;;;11.50;;
60919;SDS011;59039;52.108;19.942;2023-12-29T12:36:25;25.30;;;11.10;;
60919;SDS011;59039;52.108;19.942;2023-12-29T12:38:57;26.90;;;11.50;;
60919;SDS011;59039;52.108;19.942;2023-12-29T12:41:25;35.50;;;12.40;;
60919;SDS011;59039;52.108;19.942;2023-12-29T12:46:49;31.00;;;11.70;;
60919;SDS011;59039;52.108;19.942;2023-12-29T12:49:16;22.70;;;10.70;;
60919;SDS011;59039;52.108;19.942;2023-12-29T12:51:42;27.70;;;10.20;;
60919;SDS011;59039;52.108;19.942;2023-12-29T12:54:08;31.90;;;12.00;;
60919;SDS011;59039;52.108;19.942;2023-12-29T12:56:34;39.70;;;13.60;;
60919;SDS011;59039;52.108;19.942;2023-12-29T12:59:03;33.70;;;12.00;;
60919;SDS011;59039;52.108;19.942;2023-12-29T13:01:29;22.40;;;9.00;;
60919;SDS011;59039;52.108;19.942;2023-12-29T13:03:59;23.60;;;10.40;;
60919;SDS011;59039;52.108;19.942;2023-12-29T13:06:24;20.80;;;9.70;;
60919;SDS011;59039;52.108;19.942;2023-12-29T13:08:50;28.00;;;11.30;;
60919;SDS011;59039;52.108;19.942;2023-12-29T13:11:19;33.80;;;14.00;;
60919;SDS011;59039;52.108;19.942;2023-12-29T13:13:44;27.80;;;11.90;;
60919;SDS011;59039;52.108;19.942;2023-12-29T13:16:10;32.60;;;12.70;;
60919;SDS011;59039;52.108;19.942;2023-12-29T13:18:38;44.30;;;18.00;;
60919;SDS011;59039;52.108;19.942;2023-12-29T13:21:03;43.00;;;17.40;;
60919;SDS011;59039;52.108;19.942;2023-12-29T13:23:29;32.60;;;14.50;;
60919;SDS011;59039;52.108;19.942;2023-12-29T13:25:59;26.40;;;13.70;;
60919;SDS011;59039;52.108;19.942;2023-12-29T13:28:27;20.80;;;11.10;;
60919;SDS011;59039;52.108;19.942;2023-12-29T13:30:52;25.90;;;12.30;;
60919;SDS011;59039;52.108;19.942;2023-12-29T13:33:33;27.70;;;11.60;;
60919;SDS011;59039;52.108;19.942;2023-12-29T13:36:36;30.80;;;13.20;;
60919;SDS011;59039;52.108;19.942;2023-12-29T13:39:09;53.80;;;19.80;;
60919;SDS011;59039;52.108;19.942;2023-12-29T13:41:49;65.50;;;26.60;;
60919;SDS011;59039;52.108;19.942;2023-12-29T13:44:14;34.00;;;17.30;;
60919;SDS011;59039;52.108;19.942;2023-12-29T13:46:41;39.10;;;17.50;;
60919;SDS011;59039;52.108;19.942;2023-12-29T13:49:07;44.90;;;19.10;;
60919;SDS011;59039;52.108;19.942;2023-12-29T13:51:34;46.00;;;26.00;;
60919;SDS011;59039;52.108;19.942;2023-12-29T13:54:00;46.40;;;20.90;;
60919;SDS011;59039;52.108;19.942;2023-12-29T13:56:26;54.50;;;23.40;;
60919;SDS011;59039;52.108;19.942;2023-12-29T13:58:51;47.30;;;17.70;;
60919;SDS011;59039;52.108;19.942;2023-12-29T14:01:17;43.40;;;19.60;;
60919;SDS011;59039;52.108;19.942;2023-12-29T14:03:46;75.40;;;25.20;;
60919;SDS011;59039;52.108;19.942;2023-12-29T14:07:24;57.20;;;20.20;;
60919;SDS011;59039;52.108;19.942;2023-12-29T14:09:41;83.20;;;28.10;;
60919;SDS011;59039;52.108;19.942;2023-12-29T14:12:06;125.70;;;38.80;;
60919;SDS011;59039;52.108;19.942;2023-12-29T14:14:48;110.70;;;31.00;;
60919;SDS011;59039;52.108;19.942;2023-12-29T14:17:22;108.20;;;29.50;;
60919;SDS011;59039;52.108;19.942;2023-12-29T14:19:55;102.50;;;29.70;;
60919;SDS011;59039;52.108;19.942;2023-12-29T14:22:21;142.70;;;34.60;;
60919;SDS011;59039;52.108;19.942;2023-12-29T14:25:03;205.50;;;47.00;;
60919;SDS011;59039;52.108;19.942;2023-12-29T14:27:32;173.60;;;40.00;;
60919;SDS011;59039;52.108;19.942;2023-12-29T14:29:57;120.20;;;35.80;;
60919;SDS011;59039;52.108;19.942;2023-12-29T14:32:23;109.70;;;33.40;;
60919;SDS011;59039;52.108;19.942;2023-12-29T14:34:51;128.10;;;40.60;;
60919;SDS011;59039;52.108;19.942;2023-12-29T14:37:20;134.50;;;48.10;;
60919;SDS011;59039;52.108;19.942;2023-12-29T14:39:49;119.30;;;44.40;;
60919;SDS011;59039;52.108;19.942;2023-12-29T14:42:22;162.20;;;48.10;;
60919;SDS011;59039;52.108;19.942;2023-12-29T14:44:47;118.10;;;41.30;;
60919;SDS011;59039;52.108;19.942;2023-12-29T14:47:15;112.30;;;39.00;;
60919;SDS011;59039;52.108;19.942;2023-12-29T14:49:41;97.80;;;35.10;;
60919;SDS011;59039;52.108;19.942;2023-12-29T14:52:09;114.30;;;37.60;;
60919;SDS011;59039;52.108;19.942;2023-12-29T14:54:38;90.50;;;34.10;;
60919;SDS011;59039;52.108;19.942;2023-12-29T14:57:03;66.10;;;25.20;;
60919;SDS011;59039;52.108;19.942;2023-12-29T14:59:32;77.40;;;30.60;;
60919;SDS011;59039;52.108;19.942;2023-12-29T15:01:57;43.80;;;19.40;;
60919;SDS011;59039;52.108;19.942;2023-12-29T15:04:23;69.90;;;23.00;;
60919;SDS011;59039;52.108;19.942;2023-12-29T15:06:48;90.80;;;26.50;;
60919;SDS011;59039;52.108;19.942;2023-12-29T15:09:14;88.10;;;31.10;;
60919;SDS011;59039;52.108;19.942;2023-12-29T15:11:41;80.20;;;29.00;;
60919;SDS011;59039;52.108;19.942;2023-12-29T15:14:07;63.00;;;26.80;;
60919;SDS011;59039;52.108;19.942;2023-12-29T15:16:32;111.10;;;30.90;;
60919;SDS011;59039;52.108;19.942;2023-12-29T15:19:03;93.80;;;28.00;;
60919;SDS011;59039;52.108;19.942;2023-12-29T15:21:29;81.60;;;26.40;;
60919;SDS011;59039;52.108;19.942;2023-12-29T15:23:57;63.10;;;22.70;;
60919;SDS011;59039;52.108;19.942;2023-12-29T15:26:22;80.20;;;29.10;;
60919;SDS011;59039;52.108;19.942;2023-12-29T15:28:48;54.90;;;20.50;;
60919;SDS011;59039;52.108;19.942;2023-12-29T15:31:13;54.10;;;17.60;;
60919;SDS011;59039;52.108;19.942;2023-12-29T15:33:41;49.40;;;17.10;;
60919;SDS011;59039;52.108;19.942;2023-12-29T15:36:12;50.20;;;18.60;;
60919;SDS011;59039;52.108;19.942;2023-12-29T15:38:38;51.90;;;18.90;;
60919;SDS011;59039;52.108;19.942;2023-12-29T15:41:06;54.40;;;19.60;;
60919;SDS011;59039;52.108;19.942;2023-12-29T15:43:31;54.10;;;21.40;;
60919;SDS011;59039;52.108;19.942;2023-12-29T15:45:59;53.90;;;22.00;;
60919;SDS011;59039;52.108;19.942;2023-12-29T15:48:46;45.90;;;20.50;;
60919;SDS011;59039;52.108;19.942;2023-12-29T15:51:14;52.90;;;21.00;;
60919;SDS011;59039;52.108;19.942;2023-12-29T15:53:42;63.90;;;26.30;;
60919;SDS011;59039;52.108;19.942;2023-12-29T15:56:44;55.30;;;22.80;;
60919;SDS011;59039;52.108;19.942;2023-12-29T15:59:02;50.00;;;22.50;;
60919;SDS011;59039;52.108;19.942;2023-12-29T16:01:53;47.50;;;20.00;;
60919;SDS011;59039;52.108;19.942;2023-12-29T16:28:55;39.20;;;17.70;;
60919;SDS011;59039;52.108;19.942;2023-12-29T16:31:20;51.00;;;22.20;;
60919;SDS011;59039;52.108;19.942;2023-12-29T16:33:46;65.10;;;24.10;;
60919;SDS011;59039;52.108;19.942;2023-12-29T16:36:14;51.30;;;21.10;;
60919;SDS011;59039;52.108;19.942;2023-12-29T16:41:43;61.90;;;26.70;;
60919;SDS011;59039;52.108;19.942;2023-12-29T16:44:08;63.80;;;23.20;;